sensor_id;sensor_type;location;lat;lon;timestamp;temperature;humidity
10263;DHT22;5177;50.068;8.156;2024-02-21T00:00:30;9.00;1.00
10263;DHT22;5177;50.068;8.156;2024-02-21T00:02:56;9.00;1.00
10263;DHT22;5177;50.068;8.156;2024-02-21T00:05:24;8.90;1.00
10263;DHT22;5177;50.068;8.156;2024-02-21T00:07:50;8.90;16.80
10263;DHT22;5177;50.068;8.156;2024-02-21T00:10:15;8.90;99.90
10263;DHT22;5177;50.068;8.156;2024-02-21T00:12:41;8.90;99.90
10263;DHT22;5177;50.068;8.156;2024-02-21T00:15:06;8.90;38.40
10263;DHT22;5177;50.068;8.156;2024-02-21T00:17:32;8.90;1.00
10263;DHT22;5177;50.068;8.156;2024-02-21T00:19:57;8.90;14.00
10263;DHT22;5177;50.068;8.156;2024-02-21T00:22:23;8.80;71.70
10263;DHT22;5177;50.068;8.156;2024-02-21T00:24:49;9.00;23.60
10263;DHT22;5177;50.068;8.156;2024-02-21T00:27:14;8.90;50.40
10263;DHT22;5177;50.068;8.156;2024-02-21T00:29:40;8.90;28.10
10263;DHT22;5177;50.068;8.156;2024-02-21T00:32:05;8.90;33.00
10263;DHT22;5177;50.068;8.156;2024-02-21T00:34:31;8.80;48.50
10263;DHT22;5177;50.068;8.156;2024-02-21T00:36:56;8.80;99.90
10263;DHT22;5177;50.068;8.156;2024-02-21T00:39:22;8.80;99.90
10263;DHT22;5177;50.068;8.156;2024-02-21T00:41:49;8.70;99.90
10263;DHT22;5177;50.068;8.156;2024-02-21T00:44:14;8.70;99.90
10263;DHT22;5177;50.068;8.156;2024-02-21T00:46:40;8.60;99.90
10263;DHT22;5177;50.068;8.156;2024-02-21T00:49:06;8.70;99.90
10263;DHT22;5177;50.068;8.156;2024-02-21T00:51:32;8.60;99.90
10263;DHT22;5177;50.068;8.156;2024-02-21T00:53:57;8.60;99.90
10263;DHT22;5177;50.068;8.156;2024-02-21T00:56:23;8.60;99.90
10263;DHT22;5177;50.068;8.156;2024-02-21T00:58:48;8.60;99.90
10263;DHT22;5177;50.068;8.156;2024-02-21T01:01:20;8.70;99.90
10263;DHT22;5177;50.068;8.156;2024-02-21T01:03:46;8.70;99.90
10263;DHT22;5177;50.068;8.156;2024-02-21T01:06:11;8.70;99.90
10263;DHT22;5177;50.068;8.156;2024-02-21T01:08:37;8.70;99.90
10263;DHT22;5177;50.068;8.156;2024-02-21T01:11:03;8.70;99.90
10263;DHT22;5177;50.068;8.156;2024-02-21T01:13:28;8.70;99.90
10263;DHT22;5177;50.068;8.156;2024-02-21T01:15:54;8.80;99.90
10263;DHT22;5177;50.068;8.156;2024-02-21T01:18:19;8.80;99.90
10263;DHT22;5177;50.068;8.156;2024-02-21T01:20:45;8.80;99.90
10263;DHT22;5177;50.068;8.156;2024-02-21T01:23:10;8.80;99.90
10263;DHT22;5177;50.068;8.156;2024-02-21T01:25:36;8.80;99.90
10263;DHT22;5177;50.068;8.156;2024-02-21T01:28:01;8.80;99.90
10263;DHT22;5177;50.068;8.156;2024-02-21T01:30:27;8.80;99.90
10263;DHT22;5177;50.068;8.156;2024-02-21T01:32:52;8.90;99.90
10263;DHT22;5177;50.068;8.156;2024-02-21T01:35:18;8.90;97.10
10263;DHT22;5177;50.068;8.156;2024-02-21T01:37:43;8.90;24.40
10263;DHT22;5177;50.068;8.156;2024-02-21T01:40:09;8.80;95.70
10263;DHT22;5177;50.068;8.156;2024-02-21T01:42:37;8.80;99.90
10263;DHT22;5177;50.068;8.156;2024-02-21T01:45:03;8.70;62.50
10263;DHT22;5177;50.068;8.156;2024-02-21T01:47:29;8.70;89.10
10263;DHT22;5177;50.068;8.156;2024-02-21T01:49:55;8.70;40.90
10263;DHT22;5177;50.068;8.156;2024-02-21T01:52:20;8.70;7.00
10263;DHT22;5177;50.068;8.156;2024-02-21T01:54:46;8.70;6.70
10263;DHT22;5177;50.068;8.156;2024-02-21T01:57:12;8.70;37.70
10263;DHT22;5177;50.068;8.156;2024-02-21T01:59:37;8.70;36.80
10263;DHT22;5177;50.068;8.156;2024-02-21T02:02:04;8.70;1.00
10263;DHT22;5177;50.068;8.156;2024-02-21T02:04:29;8.70;1.00
10263;DHT22;5177;50.068;8.156;2024-02-21T02:06:55;8.70;1.00
10263;DHT22;5177;50.068;8.156;2024-02-21T02:09:20;8.60;1.00
10263;DHT22;5177;50.068;8.156;2024-02-21T02:11:46;8.60;1.00
10263;DHT22;5177;50.068;8.156;2024-02-21T02:14:11;8.60;1.00
10263;DHT22;5177;50.068;8.156;2024-02-21T02:16:37;8.60;1.00
10263;DHT22;5177;50.068;8.156;2024-02-21T02:19:02;8.60;1.00
10263;DHT22;5177;50.068;8.156;2024-02-21T02:21:32;8.60;1.00
10263;DHT22;5177;50.068;8.156;2024-02-21T02:23:59;8.60;1.00
10263;DHT22;5177;50.068;8.156;2024-02-21T02:26:25;8.60;1.00
10263;DHT22;5177;50.068;8.156;2024-02-21T02:28:51;8.50;1.00
10263;DHT22;5177;50.068;8.156;2024-02-21T02:31:16;8.50;1.00
10263;DHT22;5177;50.068;8.156;2024-02-21T02:33:44;8.50;1.00
10263;DHT22;5177;50.068;8.156;2024-02-21T02:36:13;8.50;1.00
10263;DHT22;5177;50.068;8.156;2024-02-21T02:38:38;8.60;1.00
10263;DHT22;5177;50.068;8.156;2024-02-21T02:41:04;8.60;1.00
10263;DHT22;5177;50.068;8.156;2024-02-21T02:43:29;8.60;1.00
10263;DHT22;5177;50.068;8.156;2024-02-21T02:45:55;8.50;1.00
10263;DHT22;5177;50.068;8.156;2024-02-21T02:48:21;8.50;1.00
10263;DHT22;5177;50.068;8.156;2024-02-21T02:50:46;8.40;1.00
10263;DHT22;5177;50.068;8.156;2024-02-21T02:53:12;8.40;1.00
10263;DHT22;5177;50.068;8.156;2024-02-21T02:55:37;8.40;1.00
10263;DHT22;5177;50.068;8.156;2024-02-21T02:58:03;8.40;1.00
10263;DHT22;5177;50.068;8.156;2024-02-21T03:00:28;8.30;1.00
10263;DHT22;5177;50.068;8.156;2024-02-21T03:02:54;8.40;1.00
10263;DHT22;5177;50.068;8.156;2024-02-21T03:05:20;8.40;1.00
10263;DHT22;5177;50.068;8.156;2024-02-21T03:07:46;8.40;1.00
10263;DHT22;5177;50.068;8.156;2024-02-21T03:10:12;8.40;1.00
10263;DHT22;5177;50.068;8.156;2024-02-21T03:12:37;8.40;8.90
10263;DHT22;5177;50.068;8.156;2024-02-21T03:15:03;8.40;21.00
10263;DHT22;5177;50.068;8.156;2024-02-21T03:17:30;8.40;99.90
10263;DHT22;5177;50.068;8.156;2024-02-21T03:19:55;8.30;99.90
10263;DHT22;5177;50.068;8.156;2024-02-21T03:22:24;8.30;99.90
10263;DHT22;5177;50.068;8.156;2024-02-21T03:24:49;8.30;99.90
10263;DHT22;5177;50.068;8.156;2024-02-21T03:27:15;8.30;99.90
10263;DHT22;5177;50.068;8.156;2024-02-21T03:29:40;8.30;99.90
10263;DHT22;5177;50.068;8.156;2024-02-21T03:32:05;8.30;99.90
10263;DHT22;5177;50.068;8.156;2024-02-21T03:34:31;8.30;99.90
10263;DHT22;5177;50.068;8.156;2024-02-21T03:36:56;8.20;99.90
10263;DHT22;5177;50.068;8.156;2024-02-21T03:39:22;8.30;99.90
10263;DHT22;5177;50.068;8.156;2024-02-21T03:41:48;8.30;99.90
10263;DHT22;5177;50.068;8.156;2024-02-21T03:44:13;8.30;99.90
10263;DHT22;5177;50.068;8.156;2024-02-21T03:46:39;8.20;99.90
10263;DHT22;5177;50.068;8.156;2024-02-21T03:49:04;8.30;99.90
10263;DHT22;5177;50.068;8.156;2024-02-21T03:51:30;8.30;1.00
10263;DHT22;5177;50.068;8.156;2024-02-21T03:53:55;8.30;1.00
10263;DHT22;5177;50.068;8.156;2024-02-21T03:56:20;8.30;99.90
10263;DHT22;5177;50.068;8.156;2024-02-21T03:58:46;8.30;99.90
10263;DHT22;5177;50.068;8.156;2024-02-21T04:01:11;8.30;1.00
10263;DHT22;5177;50.068;8.156;2024-02-21T04:03:37;8.30;99.90
10263;DHT22;5177;50.068;8.156;2024-02-21T04:06:03;8.30;99.90
10263;DHT22;5177;50.068;8.156;2024-02-21T04:08:28;8.30;99.90
10263;DHT22;5177;50.068;8.156;2024-02-21T04:11:03;8.30;99.90
10263;DHT22;5177;50.068;8.156;2024-02-21T04:13:28;8.30;99.90
10263;DHT22;5177;50.068;8.156;2024-02-21T04:15:54;8.30;99.90
10263;DHT22;5177;50.068;8.156;2024-02-21T04:18:19;8.30;99.90
10263;DHT22;5177;50.068;8.156;2024-02-21T04:20:45;8.30;99.90
10263;DHT22;5177;50.068;8.156;2024-02-21T04:23:10;8.30;99.90
10263;DHT22;5177;50.068;8.156;2024-02-21T04:25:36;8.30;99.90
10263;DHT22;5177;50.068;8.156;2024-02-21T04:28:01;8.20;1.00
10263;DHT22;5177;50.068;8.156;2024-02-21T04:30:27;8.30;99.90
10263;DHT22;5177;50.068;8.156;2024-02-21T04:32:52;8.30;99.90
10263;DHT22;5177;50.068;8.156;2024-02-21T04:35:18;8.30;99.90
10263;DHT22;5177;50.068;8.156;2024-02-21T04:37:43;8.30;99.90
10263;DHT22;5177;50.068;8.156;2024-02-21T04:40:10;8.30;99.90
10263;DHT22;5177;50.068;8.156;2024-02-21T04:42:35;8.30;99.90
10263;DHT22;5177;50.068;8.156;2024-02-21T04:45:01;8.30;99.90
10263;DHT22;5177;50.068;8.156;2024-02-21T04:50:30;8.30;99.90
10263;DHT22;5177;50.068;8.156;2024-02-21T04:52:56;8.30;69.10
10263;DHT22;5177;50.068;8.156;2024-02-21T04:55:21;8.30;64.00
10263;DHT22;5177;50.068;8.156;2024-02-21T04:57:47;8.40;47.40
10263;DHT22;5177;50.068;8.156;2024-02-21T05:00:12;8.30;7.90
10263;DHT22;5177;50.068;8.156;2024-02-21T05:02:38;8.30;1.00
10263;DHT22;5177;50.068;8.156;2024-02-21T05:05:03;8.20;2.20
10263;DHT22;5177;50.068;8.156;2024-02-21T05:07:29;8.30;38.00
10263;DHT22;5177;50.068;8.156;2024-02-21T05:09:54;8.20;99.90
10263;DHT22;5177;50.068;8.156;2024-02-21T05:12:20;8.20;99.90
10263;DHT22;5177;50.068;8.156;2024-02-21T05:14:45;8.20;99.90
10263;DHT22;5177;50.068;8.156;2024-02-21T05:17:11;8.10;99.90
10263;DHT22;5177;50.068;8.156;2024-02-21T05:19:36;8.10;99.90
10263;DHT22;5177;50.068;8.156;2024-02-21T05:22:01;8.10;99.90
10263;DHT22;5177;50.068;8.156;2024-02-21T05:24:27;8.10;99.90
10263;DHT22;5177;50.068;8.156;2024-02-21T05:26:53;8.10;99.90
10263;DHT22;5177;50.068;8.156;2024-02-21T05:29:19;8.10;99.90
10263;DHT22;5177;50.068;8.156;2024-02-21T05:34:16;8.20;96.80
10263;DHT22;5177;50.068;8.156;2024-02-21T05:36:41;8.20;99.90
10263;DHT22;5177;50.068;8.156;2024-02-21T05:39:07;8.20;88.80
10263;DHT22;5177;50.068;8.156;2024-02-21T05:41:33;8.20;16.80
10263;DHT22;5177;50.068;8.156;2024-02-21T05:43:58;8.20;11.30
10263;DHT22;5177;50.068;8.156;2024-02-21T05:46:23;8.30;1.00
10263;DHT22;5177;50.068;8.156;2024-02-21T05:48:49;8.20;1.00
10263;DHT22;5177;50.068;8.156;2024-02-21T05:51:15;8.20;1.00
10263;DHT22;5177;50.068;8.156;2024-02-21T05:53:43;8.10;1.00
10263;DHT22;5177;50.068;8.156;2024-02-21T05:56:11;8.10;1.00
10263;DHT22;5177;50.068;8.156;2024-02-21T05:58:37;8.10;1.00
10263;DHT22;5177;50.068;8.156;2024-02-21T06:01:03;8.00;1.00
10263;DHT22;5177;50.068;8.156;2024-02-21T06:03:29;8.00;1.00
10263;DHT22;5177;50.068;8.156;2024-02-21T06:05:55;8.00;1.00
10263;DHT22;5177;50.068;8.156;2024-02-21T06:08:21;8.00;1.00
10263;DHT22;5177;50.068;8.156;2024-02-21T06:10:49;8.00;1.00
10263;DHT22;5177;50.068;8.156;2024-02-21T06:13:19;8.00;1.00
10263;DHT22;5177;50.068;8.156;2024-02-21T06:15:46;7.90;1.00
10263;DHT22;5177;50.068;8.156;2024-02-21T06:18:12;7.90;1.00
10263;DHT22;5177;50.068;8.156;2024-02-21T06:20:37;7.90;1.00
10263;DHT22;5177;50.068;8.156;2024-02-21T06:23:05;7.90;1.00
10263;DHT22;5177;50.068;8.156;2024-02-21T06:25:31;7.80;1.00
10263;DHT22;5177;50.068;8.156;2024-02-21T06:27:56;7.80;1.00
10263;DHT22;5177;50.068;8.156;2024-02-21T06:30:22;7.80;1.00
10263;DHT22;5177;50.068;8.156;2024-02-21T06:32:47;7.70;1.00
10263;DHT22;5177;50.068;8.156;2024-02-21T06:35:13;7.70;1.00
10263;DHT22;5177;50.068;8.156;2024-02-21T06:37:38;7.70;1.00
10263;DHT22;5177;50.068;8.156;2024-02-21T06:40:04;7.70;1.00
10263;DHT22;5177;50.068;8.156;2024-02-21T06:42:30;7.70;1.00
10263;DHT22;5177;50.068;8.156;2024-02-21T06:44:55;7.70;1.00
10263;DHT22;5177;50.068;8.156;2024-02-21T06:47:21;7.60;1.00
10263;DHT22;5177;50.068;8.156;2024-02-21T06:49:50;7.60;1.00
10263;DHT22;5177;50.068;8.156;2024-02-21T06:52:19;7.70;1.00
10263;DHT22;5177;50.068;8.156;2024-02-21T06:54:49;7.70;1.00
10263;DHT22;5177;50.068;8.156;2024-02-21T06:57:14;7.70;1.00
10263;DHT22;5177;50.068;8.156;2024-02-21T06:59:41;7.70;1.00
10263;DHT22;5177;50.068;8.156;2024-02-21T07:02:06;7.70;1.00
10263;DHT22;5177;50.068;8.156;2024-02-21T07:04:32;7.80;1.00
10263;DHT22;5177;50.068;8.156;2024-02-21T07:06:57;7.80;1.00
10263;DHT22;5177;50.068;8.156;2024-02-21T07:09:23;7.90;1.00
10263;DHT22;5177;50.068;8.156;2024-02-21T07:11:48;7.90;1.00
10263;DHT22;5177;50.068;8.156;2024-02-21T07:14:14;7.90;1.00
10263;DHT22;5177;50.068;8.156;2024-02-21T07:16:40;7.90;1.00
10263;DHT22;5177;50.068;8.156;2024-02-21T07:19:05;8.00;1.00
10263;DHT22;5177;50.068;8.156;2024-02-21T07:21:31;8.00;1.00
10263;DHT22;5177;50.068;8.156;2024-02-21T07:23:56;8.10;1.00
10263;DHT22;5177;50.068;8.156;2024-02-21T07:26:22;8.10;1.00
10263;DHT22;5177;50.068;8.156;2024-02-21T07:28:47;8.10;1.00
10263;DHT22;5177;50.068;8.156;2024-02-21T07:31:13;8.20;1.00
10263;DHT22;5177;50.068;8.156;2024-02-21T07:33:38;8.20;99.90
10263;DHT22;5177;50.068;8.156;2024-02-21T07:36:07;8.30;99.90
10263;DHT22;5177;50.068;8.156;2024-02-21T07:38:33;8.40;99.90
10263;DHT22;5177;50.068;8.156;2024-02-21T07:40:59;8.40;99.90
10263;DHT22;5177;50.068;8.156;2024-02-21T07:43:24;8.40;99.90
10263;DHT22;5177;50.068;8.156;2024-02-21T07:45:52;8.50;99.90
10263;DHT22;5177;50.068;8.156;2024-02-21T07:48:18;8.50;99.90
10263;DHT22;5177;50.068;8.156;2024-02-21T07:50:44;8.50;99.90
10263;DHT22;5177;50.068;8.156;2024-02-21T07:53:09;8.70;99.90
10263;DHT22;5177;50.068;8.156;2024-02-21T07:55:35;8.70;99.90
10263;DHT22;5177;50.068;8.156;2024-02-21T07:58:00;8.70;99.90
10263;DHT22;5177;50.068;8.156;2024-02-21T08:00:26;8.60;99.90
10263;DHT22;5177;50.068;8.156;2024-02-21T08:02:51;8.60;99.90
10263;DHT22;5177;50.068;8.156;2024-02-21T08:05:17;8.70;99.90
10263;DHT22;5177;50.068;8.156;2024-02-21T08:07:42;8.70;99.90
10263;DHT22;5177;50.068;8.156;2024-02-21T08:10:08;8.70;99.90
10263;DHT22;5177;50.068;8.156;2024-02-21T08:12:34;8.80;99.90
10263;DHT22;5177;50.068;8.156;2024-02-21T08:14:59;8.70;99.90
10263;DHT22;5177;50.068;8.156;2024-02-21T08:17:25;8.80;99.90
10263;DHT22;5177;50.068;8.156;2024-02-21T08:19:50;8.70;96.30
10263;DHT22;5177;50.068;8.156;2024-02-21T08:22:16;8.70;99.90
10263;DHT22;5177;50.068;8.156;2024-02-21T08:24:41;8.70;99.90
10263;DHT22;5177;50.068;8.156;2024-02-21T08:27:07;8.60;99.90
10263;DHT22;5177;50.068;8.156;2024-02-21T08:29:32;8.60;99.90
10263;DHT22;5177;50.068;8.156;2024-02-21T08:31:58;8.60;99.90
10263;DHT22;5177;50.068;8.156;2024-02-21T08:34:23;8.60;99.90
10263;DHT22;5177;50.068;8.156;2024-02-21T08:36:49;8.50;99.90
10263;DHT22;5177;50.068;8.156;2024-02-21T08:39:15;8.60;99.90
10263;DHT22;5177;50.068;8.156;2024-02-21T08:41:43;8.60;99.90
10263;DHT22;5177;50.068;8.156;2024-02-21T08:44:09;8.70;99.90
10263;DHT22;5177;50.068;8.156;2024-02-21T08:46:34;8.70;99.90
10263;DHT22;5177;50.068;8.156;2024-02-21T08:49:00;8.80;99.90
10263;DHT22;5177;50.068;8.156;2024-02-21T08:51:25;8.80;99.90
10263;DHT22;5177;50.068;8.156;2024-02-21T08:53:51;8.80;99.90
10263;DHT22;5177;50.068;8.156;2024-02-21T08:56:18;8.80;99.90
10263;DHT22;5177;50.068;8.156;2024-02-21T08:58:44;8.80;99.90
10263;DHT22;5177;50.068;8.156;2024-02-21T09:01:09;8.80;99.90
10263;DHT22;5177;50.068;8.156;2024-02-21T09:03:38;8.90;99.90
10263;DHT22;5177;50.068;8.156;2024-02-21T09:06:04;8.90;99.90
10263;DHT22;5177;50.068;8.156;2024-02-21T09:08:30;9.00;92.10
10263;DHT22;5177;50.068;8.156;2024-02-21T09:10:55;9.00;31.20
10263;DHT22;5177;50.068;8.156;2024-02-21T09:13:21;9.20;95.50
10263;DHT22;5177;50.068;8.156;2024-02-21T09:15:49;9.20;22.30
10263;DHT22;5177;50.068;8.156;2024-02-21T09:18:15;9.20;1.00
10263;DHT22;5177;50.068;8.156;2024-02-21T09:20:41;9.20;1.00
10263;DHT22;5177;50.068;8.156;2024-02-21T09:23:07;9.20;1.00
10263;DHT22;5177;50.068;8.156;2024-02-21T09:25:32;9.40;12.40
10263;DHT22;5177;50.068;8.156;2024-02-21T09:27:58;9.40;1.00
10263;DHT22;5177;50.068;8.156;2024-02-21T09:30:23;9.40;1.00
10263;DHT22;5177;50.068;8.156;2024-02-21T09:32:49;9.50;1.00
10263;DHT22;5177;50.068;8.156;2024-02-21T09:35:14;9.50;1.00
10263;DHT22;5177;50.068;8.156;2024-02-21T09:37:40;9.60;1.00
10263;DHT22;5177;50.068;8.156;2024-02-21T09:40:06;9.80;1.00
10263;DHT22;5177;50.068;8.156;2024-02-21T09:42:38;9.80;1.00
10263;DHT22;5177;50.068;8.156;2024-02-21T09:45:08;10.00;1.00
10263;DHT22;5177;50.068;8.156;2024-02-21T09:47:34;10.00;1.00
10263;DHT22;5177;50.068;8.156;2024-02-21T09:50:05;10.00;1.00
10263;DHT22;5177;50.068;8.156;2024-02-21T09:52:30;10.00;1.00
10263;DHT22;5177;50.068;8.156;2024-02-21T09:54:58;10.10;1.00
10263;DHT22;5177;50.068;8.156;2024-02-21T09:57:23;10.10;1.00
10263;DHT22;5177;50.068;8.156;2024-02-21T09:59:51;9.90;1.00
10263;DHT22;5177;50.068;8.156;2024-02-21T10:02:17;10.10;1.00
10263;DHT22;5177;50.068;8.156;2024-02-21T10:04:42;10.20;1.00
10263;DHT22;5177;50.068;8.156;2024-02-21T10:07:08;10.40;1.00
10263;DHT22;5177;50.068;8.156;2024-02-21T10:09:34;10.50;1.00
10263;DHT22;5177;50.068;8.156;2024-02-21T10:12:18;10.70;1.00
10263;DHT22;5177;50.068;8.156;2024-02-21T10:14:46;10.80;1.00
10263;DHT22;5177;50.068;8.156;2024-02-21T10:17:18;10.80;1.00
10263;DHT22;5177;50.068;8.156;2024-02-21T10:19:45;10.70;1.00
10263;DHT22;5177;50.068;8.156;2024-02-21T10:22:12;10.60;1.00
10263;DHT22;5177;50.068;8.156;2024-02-21T10:24:40;10.30;1.00
10263;DHT22;5177;50.068;8.156;2024-02-21T10:27:09;10.40;1.00
10263;DHT22;5177;50.068;8.156;2024-02-21T10:29:36;10.40;1.00
10263;DHT22;5177;50.068;8.156;2024-02-21T10:32:08;10.50;1.00
10263;DHT22;5177;50.068;8.156;2024-02-21T10:34:34;10.50;1.00
10263;DHT22;5177;50.068;8.156;2024-02-21T10:37:03;10.60;1.00
10263;DHT22;5177;50.068;8.156;2024-02-21T10:39:31;10.70;1.00
10263;DHT22;5177;50.068;8.156;2024-02-21T10:41:57;10.60;1.00
10263;DHT22;5177;50.068;8.156;2024-02-21T10:44:25;10.70;1.00
10263;DHT22;5177;50.068;8.156;2024-02-21T10:46:51;10.70;1.00
10263;DHT22;5177;50.068;8.156;2024-02-21T10:49:20;10.80;1.00
10263;DHT22;5177;50.068;8.156;2024-02-21T10:51:47;10.70;1.00
10263;DHT22;5177;50.068;8.156;2024-02-21T10:54:18;10.80;1.00
10263;DHT22;5177;50.068;8.156;2024-02-21T10:56:46;10.90;1.00
10263;DHT22;5177;50.068;8.156;2024-02-21T10:59:14;10.90;1.00
10263;DHT22;5177;50.068;8.156;2024-02-21T11:01:40;11.10;1.00
10263;DHT22;5177;50.068;8.156;2024-02-21T11:04:06;11.10;1.00
10263;DHT22;5177;50.068;8.156;2024-02-21T11:06:32;11.00;1.00
10263;DHT22;5177;50.068;8.156;2024-02-21T11:09:02;11.10;1.00
10263;DHT22;5177;50.068;8.156;2024-02-21T11:11:28;10.80;1.00
10263;DHT22;5177;50.068;8.156;2024-02-21T11:14:03;10.90;1.00
10263;DHT22;5177;50.068;8.156;2024-02-21T11:16:34;11.00;1.00
10263;DHT22;5177;50.068;8.156;2024-02-21T11:19:06;11.20;1.00
10263;DHT22;5177;50.068;8.156;2024-02-21T11:21:32;11.30;99.90
10263;DHT22;5177;50.068;8.156;2024-02-21T11:23:58;11.50;99.90
10263;DHT22;5177;50.068;8.156;2024-02-21T11:26:24;11.30;99.90
10263;DHT22;5177;50.068;8.156;2024-02-21T11:28:57;11.30;99.90
10263;DHT22;5177;50.068;8.156;2024-02-21T11:31:23;11.40;99.90
10263;DHT22;5177;50.068;8.156;2024-02-21T11:33:48;11.50;99.90
10263;DHT22;5177;50.068;8.156;2024-02-21T11:36:24;11.40;99.90
10263;DHT22;5177;50.068;8.156;2024-02-21T11:38:50;11.40;99.90
10263;DHT22;5177;50.068;8.156;2024-02-21T11:41:16;11.30;99.90
10263;DHT22;5177;50.068;8.156;2024-02-21T11:43:41;11.20;99.90
10263;DHT22;5177;50.068;8.156;2024-02-21T11:46:07;11.10;99.90
10263;DHT22;5177;50.068;8.156;2024-02-21T11:48:32;11.30;99.90
10263;DHT22;5177;50.068;8.156;2024-02-21T11:50:58;11.30;99.90
10263;DHT22;5177;50.068;8.156;2024-02-21T11:53:25;11.10;1.00
10263;DHT22;5177;50.068;8.156;2024-02-21T11:55:56;11.10;1.00
10263;DHT22;5177;50.068;8.156;2024-02-21T11:58:22;11.10;1.00
10263;DHT22;5177;50.068;8.156;2024-02-21T12:00:48;11.20;1.00
10263;DHT22;5177;50.068;8.156;2024-02-21T12:03:13;11.10;1.00
10263;DHT22;5177;50.068;8.156;2024-02-21T12:05:40;11.00;1.00
10263;DHT22;5177;50.068;8.156;2024-02-21T12:08:06;11.00;1.00
10263;DHT22;5177;50.068;8.156;2024-02-21T12:10:31;11.10;1.00
10263;DHT22;5177;50.068;8.156;2024-02-21T12:13:05;11.20;1.00
10263;DHT22;5177;50.068;8.156;2024-02-21T12:15:31;11.30;1.00
10263;DHT22;5177;50.068;8.156;2024-02-21T12:17:56;11.20;1.00
10263;DHT22;5177;50.068;8.156;2024-02-21T12:20:22;11.20;1.00
10263;DHT22;5177;50.068;8.156;2024-02-21T12:22:49;11.30;1.00
10263;DHT22;5177;50.068;8.156;2024-02-21T12:25:18;11.30;1.00
10263;DHT22;5177;50.068;8.156;2024-02-21T12:27:44;11.20;1.00
10263;DHT22;5177;50.068;8.156;2024-02-21T12:30:10;11.20;1.00
10263;DHT22;5177;50.068;8.156;2024-02-21T12:32:36;11.20;1.00
10263;DHT22;5177;50.068;8.156;2024-02-21T12:35:01;11.10;1.00
10263;DHT22;5177;50.068;8.156;2024-02-21T12:37:27;11.10;1.00
10263;DHT22;5177;50.068;8.156;2024-02-21T12:39:53;11.10;1.00
10263;DHT22;5177;50.068;8.156;2024-02-21T12:42:18;11.00;1.00
10263;DHT22;5177;50.068;8.156;2024-02-21T12:44:44;10.90;1.00
10263;DHT22;5177;50.068;8.156;2024-02-21T12:47:10;11.00;1.00
10263;DHT22;5177;50.068;8.156;2024-02-21T12:49:35;11.10;1.00
10263;DHT22;5177;50.068;8.156;2024-02-21T12:52:01;11.10;1.00
10263;DHT22;5177;50.068;8.156;2024-02-21T12:54:26;11.10;1.00
10263;DHT22;5177;50.068;8.156;2024-02-21T12:56:52;11.20;1.00
10263;DHT22;5177;50.068;8.156;2024-02-21T12:59:17;11.20;1.00
10263;DHT22;5177;50.068;8.156;2024-02-21T13:01:42;11.10;1.00
10263;DHT22;5177;50.068;8.156;2024-02-21T13:04:08;11.10;1.00
10263;DHT22;5177;50.068;8.156;2024-02-21T13:06:34;11.20;1.00
10263;DHT22;5177;50.068;8.156;2024-02-21T13:08:59;11.20;1.00
10263;DHT22;5177;50.068;8.156;2024-02-21T13:11:28;11.20;1.00
10263;DHT22;5177;50.068;8.156;2024-02-21T13:13:56;11.20;1.00
10263;DHT22;5177;50.068;8.156;2024-02-21T13:16:21;11.10;1.00
10263;DHT22;5177;50.068;8.156;2024-02-21T13:18:47;11.10;1.00
10263;DHT22;5177;50.068;8.156;2024-02-21T13:21:13;11.10;1.00
10263;DHT22;5177;50.068;8.156;2024-02-21T13:23:39;11.00;1.00
10263;DHT22;5177;50.068;8.156;2024-02-21T13:26:05;10.90;1.00
10263;DHT22;5177;50.068;8.156;2024-02-21T13:28:31;11.20;1.00
10263;DHT22;5177;50.068;8.156;2024-02-21T13:30:56;11.20;1.00
10263;DHT22;5177;50.068;8.156;2024-02-21T13:33:22;11.30;1.00
10263;DHT22;5177;50.068;8.156;2024-02-21T13:35:48;11.30;1.00
10263;DHT22;5177;50.068;8.156;2024-02-21T13:38:13;11.20;1.00
10263;DHT22;5177;50.068;8.156;2024-02-21T13:40:39;11.20;1.00
10263;DHT22;5177;50.068;8.156;2024-02-21T13:43:07;11.20;1.00
10263;DHT22;5177;50.068;8.156;2024-02-21T13:45:33;11.30;1.00
10263;DHT22;5177;50.068;8.156;2024-02-21T13:47:58;11.40;1.00
10263;DHT22;5177;50.068;8.156;2024-02-21T13:50:29;11.30;1.00
10263;DHT22;5177;50.068;8.156;2024-02-21T13:52:54;11.40;1.00
10263;DHT22;5177;50.068;8.156;2024-02-21T13:55:20;11.40;1.00
10263;DHT22;5177;50.068;8.156;2024-02-21T13:57:47;11.40;1.00
10263;DHT22;5177;50.068;8.156;2024-02-21T14:00:13;11.40;1.00
10263;DHT22;5177;50.068;8.156;2024-02-21T14:02:38;11.40;1.00
10263;DHT22;5177;50.068;8.156;2024-02-21T14:05:04;11.40;99.90
10263;DHT22;5177;50.068;8.156;2024-02-21T14:07:31;11.20;99.90
10263;DHT22;5177;50.068;8.156;2024-02-21T14:09:58;11.30;1.00
10263;DHT22;5177;50.068;8.156;2024-02-21T14:12:24;11.30;99.90
10263;DHT22;5177;50.068;8.156;2024-02-21T14:14:49;11.40;99.90
10263;DHT22;5177;50.068;8.156;2024-02-21T14:17:15;11.40;99.90
10263;DHT22;5177;50.068;8.156;2024-02-21T14:19:41;11.40;99.90
10263;DHT22;5177;50.068;8.156;2024-02-21T14:22:07;11.40;99.90
10263;DHT22;5177;50.068;8.156;2024-02-21T14:24:32;11.40;99.90
10263;DHT22;5177;50.068;8.156;2024-02-21T14:26:58;11.40;99.90
10263;DHT22;5177;50.068;8.156;2024-02-21T14:29:25;11.30;99.90
10263;DHT22;5177;50.068;8.156;2024-02-21T14:31:50;11.40;99.90
10263;DHT22;5177;50.068;8.156;2024-02-21T14:34:16;11.40;99.90
10263;DHT22;5177;50.068;8.156;2024-02-21T14:36:41;11.50;99.90
10263;DHT22;5177;50.068;8.156;2024-02-21T14:39:07;11.50;99.90
10263;DHT22;5177;50.068;8.156;2024-02-21T14:41:32;11.60;99.90
10263;DHT22;5177;50.068;8.156;2024-02-21T14:44:00;11.60;99.90
10263;DHT22;5177;50.068;8.156;2024-02-21T14:46:27;11.60;99.90
10263;DHT22;5177;50.068;8.156;2024-02-21T14:48:54;11.70;99.90
10263;DHT22;5177;50.068;8.156;2024-02-21T14:51:19;11.70;99.90
10263;DHT22;5177;50.068;8.156;2024-02-21T14:53:45;11.60;99.90
10263;DHT22;5177;50.068;8.156;2024-02-21T14:56:15;11.60;99.90
10263;DHT22;5177;50.068;8.156;2024-02-21T14:58:41;11.60;99.90
10263;DHT22;5177;50.068;8.156;2024-02-21T15:01:07;11.60;99.90
10263;DHT22;5177;50.068;8.156;2024-02-21T15:03:32;11.70;99.90
10263;DHT22;5177;50.068;8.156;2024-02-21T15:05:58;11.70;99.90
10263;DHT22;5177;50.068;8.156;2024-02-21T15:08:23;11.70;99.90
10263;DHT22;5177;50.068;8.156;2024-02-21T15:10:49;11.60;99.90
10263;DHT22;5177;50.068;8.156;2024-02-21T15:13:15;11.60;99.90
10263;DHT22;5177;50.068;8.156;2024-02-21T15:15:41;11.50;99.90
10263;DHT22;5177;50.068;8.156;2024-02-21T15:18:06;11.40;99.90
10263;DHT22;5177;50.068;8.156;2024-02-21T15:20:32;11.50;99.90
10263;DHT22;5177;50.068;8.156;2024-02-21T15:22:57;11.50;99.90
10263;DHT22;5177;50.068;8.156;2024-02-21T15:25:24;11.40;99.90
10263;DHT22;5177;50.068;8.156;2024-02-21T15:27:50;11.40;99.90
10263;DHT22;5177;50.068;8.156;2024-02-21T15:30:16;11.40;99.90
10263;DHT22;5177;50.068;8.156;2024-02-21T15:32:41;11.30;99.90
10263;DHT22;5177;50.068;8.156;2024-02-21T15:35:10;11.40;99.90
10263;DHT22;5177;50.068;8.156;2024-02-21T15:37:35;11.30;1.00
10263;DHT22;5177;50.068;8.156;2024-02-21T15:40:01;11.30;1.00
10263;DHT22;5177;50.068;8.156;2024-02-21T15:42:27;11.30;1.00
10263;DHT22;5177;50.068;8.156;2024-02-21T15:44:53;11.30;1.00
10263;DHT22;5177;50.068;8.156;2024-02-21T15:47:18;11.20;1.00
10263;DHT22;5177;50.068;8.156;2024-02-21T15:49:49;11.20;1.00
10263;DHT22;5177;50.068;8.156;2024-02-21T15:52:14;11.10;31.50
10263;DHT22;5177;50.068;8.156;2024-02-21T15:54:46;11.10;32.30
10263;DHT22;5177;50.068;8.156;2024-02-21T15:57:11;11.00;67.30
10263;DHT22;5177;50.068;8.156;2024-02-21T15:59:37;11.00;99.90
10263;DHT22;5177;50.068;8.156;2024-02-21T16:02:02;10.90;94.60